sensor_id;sensor_type;location;lat;lon;timestamp;P1;durP1;ratioP1;P2;durP2;ratioP2
14342;SDS011;7255;53.596;9.960;2023-07-31T00:00:04;4.00;;;2.42;;
14342;SDS011;7255;53.596;9.960;2023-07-31T00:02:33;6.37;;;2.17;;
14342;SDS011;7255;53.596;9.960;2023-07-31T00:05:00;9.50;;;2.90;;
14342;SDS011;7255;53.596;9.960;2023-07-31T00:07:26;4.78;;;2.37;;
14342;SDS011;7255;53.596;9.960;2023-07-31T00:09:54;3.67;;;1.95;;
14342;SDS011;7255;53.596;9.960;2023-07-31T00:12:21;5.15;;;1.95;;
14342;SDS011;7255;53.596;9.960;2023-07-31T00:14:48;7.57;;;2.53;;
14342;SDS011;7255;53.596;9.960;2023-07-31T00:17:14;6.25;;;2.15;;
14342;SDS011;7255;53.596;9.960;2023-07-31T00:19:43;7.10;;;2.28;;
14342;SDS011;7255;53.596;9.960;2023-07-31T00:22:11;3.65;;;1.90;;
14342;SDS011;7255;53.596;9.960;2023-07-31T00:24:37;2.12;;;1.80;;
14342;SDS011;7255;53.596;9.960;2023-07-31T00:27:05;7.15;;;2.65;;
14342;SDS011;7255;53.596;9.960;2023-07-31T00:29:31;8.38;;;2.40;;
14342;SDS011;7255;53.596;9.960;2023-07-31T00:31:58;4.97;;;2.90;;
14342;SDS011;7255;53.596;9.960;2023-07-31T00:34:24;6.93;;;2.37;;
14342;SDS011;7255;53.596;9.960;2023-07-31T00:36:50;4.78;;;2.03;;
14342;SDS011;7255;53.596;9.960;2023-07-31T00:39:16;6.03;;;2.47;;
14342;SDS011;7255;53.596;9.960;2023-07-31T00:41:43;6.18;;;2.03;;
14342;SDS011;7255;53.596;9.960;2023-07-31T00:44:11;5.25;;;2.00;;
14342;SDS011;7255;53.596;9.960;2023-07-31T00:46:37;3.92;;;2.15;;
14342;SDS011;7255;53.596;9.960;2023-07-31T00:49:03;2.65;;;1.83;;
14342;SDS011;7255;53.596;9.960;2023-07-31T00:51:30;6.87;;;1.90;;
14342;SDS011;7255;53.596;9.960;2023-07-31T00:53:57;6.93;;;1.95;;
14342;SDS011;7255;53.596;9.960;2023-07-31T00:56:24;6.62;;;2.25;;
14342;SDS011;7255;53.596;9.960;2023-07-31T00:58:51;5.95;;;2.17;;
14342;SDS011;7255;53.596;9.960;2023-07-31T01:01:19;8.15;;;2.45;;
14342;SDS011;7255;53.596;9.960;2023-07-31T01:03:46;3.58;;;1.75;;
14342;SDS011;7255;53.596;9.960;2023-07-31T01:06:14;4.10;;;1.90;;
14342;SDS011;7255;53.596;9.960;2023-07-31T01:08:44;7.97;;;1.98;;
14342;SDS011;7255;53.596;9.960;2023-07-31T01:11:19;11.43;;;2.60;;
14342;SDS011;7255;53.596;9.960;2023-07-31T01:13:47;4.32;;;1.98;;
14342;SDS011;7255;53.596;9.960;2023-07-31T01:16:14;5.12;;;2.62;;
14342;SDS011;7255;53.596;9.960;2023-07-31T01:18:41;7.07;;;1.98;;
14342;SDS011;7255;53.596;9.960;2023-07-31T01:21:12;7.43;;;2.50;;
14342;SDS011;7255;53.596;9.960;2023-07-31T01:24:14;8.05;;;2.58;;
14342;SDS011;7255;53.596;9.960;2023-07-31T01:26:51;3.08;;;2.10;;
14342;SDS011;7255;53.596;9.960;2023-07-31T01:29:23;4.10;;;2.12;;
14342;SDS011;7255;53.596;9.960;2023-07-31T01:31:55;3.97;;;2.15;;
14342;SDS011;7255;53.596;9.960;2023-07-31T01:34:26;7.68;;;2.62;;
14342;SDS011;7255;53.596;9.960;2023-07-31T01:36:53;3.70;;;2.03;;
14342;SDS011;7255;53.596;9.960;2023-07-31T01:39:19;4.62;;;2.10;;
14342;SDS011;7255;53.596;9.960;2023-07-31T01:41:46;3.37;;;1.98;;
14342;SDS011;7255;53.596;9.960;2023-07-31T01:44:14;4.28;;;2.17;;
14342;SDS011;7255;53.596;9.960;2023-07-31T01:46:40;5.47;;;2.45;;
14342;SDS011;7255;53.596;9.960;2023-07-31T01:49:07;4.45;;;2.15;;
14342;SDS011;7255;53.596;9.960;2023-07-31T01:51:34;4.47;;;3.10;;
14342;SDS011;7255;53.596;9.960;2023-07-31T01:54:00;5.00;;;2.58;;
14342;SDS011;7255;53.596;9.960;2023-07-31T01:56:26;6.40;;;2.20;;
14342;SDS011;7255;53.596;9.960;2023-07-31T01:58:53;3.28;;;1.83;;
14342;SDS011;7255;53.596;9.960;2023-07-31T02:01:20;4.55;;;2.22;;
14342;SDS011;7255;53.596;9.960;2023-07-31T02:03:46;3.60;;;2.40;;
14342;SDS011;7255;53.596;9.960;2023-07-31T02:06:13;5.00;;;2.35;;
14342;SDS011;7255;53.596;9.960;2023-07-31T02:08:39;7.85;;;2.83;;
14342;SDS011;7255;53.596;9.960;2023-07-31T02:11:05;4.05;;;2.03;;
14342;SDS011;7255;53.596;9.960;2023-07-31T02:13:32;6.18;;;2.30;;
14342;SDS011;7255;53.596;9.960;2023-07-31T02:15:58;6.22;;;4.03;;
14342;SDS011;7255;53.596;9.960;2023-07-31T02:18:26;5.72;;;2.30;;
14342;SDS011;7255;53.596;9.960;2023-07-31T02:20:52;4.90;;;2.40;;
14342;SDS011;7255;53.596;9.960;2023-07-31T02:23:19;2.45;;;2.20;;
14342;SDS011;7255;53.596;9.960;2023-07-31T02:25:45;2.80;;;2.55;;
14342;SDS011;7255;53.596;9.960;2023-07-31T02:28:12;2.62;;;2.42;;
14342;SDS011;7255;53.596;9.960;2023-07-31T02:30:38;5.80;;;1.90;;
14342;SDS011;7255;53.596;9.960;2023-07-31T02:33:05;2.92;;;2.12;;
14342;SDS011;7255;53.596;9.960;2023-07-31T02:35:33;6.47;;;2.42;;
14342;SDS011;7255;53.596;9.960;2023-07-31T02:37:59;5.18;;;2.40;;
14342;SDS011;7255;53.596;9.960;2023-07-31T02:40:25;7.22;;;3.03;;
14342;SDS011;7255;53.596;9.960;2023-07-31T02:42:51;5.78;;;2.55;;
14342;SDS011;7255;53.596;9.960;2023-07-31T02:45:18;7.32;;;2.58;;
14342;SDS011;7255;53.596;9.960;2023-07-31T02:47:44;3.10;;;2.40;;
14342;SDS011;7255;53.596;9.960;2023-07-31T02:50:10;3.50;;;2.30;;
14342;SDS011;7255;53.596;9.960;2023-07-31T02:52:38;5.60;;;2.45;;
14342;SDS011;7255;53.596;9.960;2023-07-31T02:55:05;5.90;;;2.80;;
14342;SDS011;7255;53.596;9.960;2023-07-31T02:57:32;4.10;;;2.50;;
14342;SDS011;7255;53.596;9.960;2023-07-31T02:59:58;4.20;;;2.80;;
14342;SDS011;7255;53.596;9.960;2023-07-31T03:02:24;3.92;;;2.53;;
14342;SDS011;7255;53.596;9.960;2023-07-31T03:04:51;2.67;;;2.30;;
14342;SDS011;7255;53.596;9.960;2023-07-31T03:07:18;6.12;;;2.40;;
14342;SDS011;7255;53.596;9.960;2023-07-31T03:09:45;2.75;;;2.17;;
14342;SDS011;7255;53.596;9.960;2023-07-31T03:12:12;5.35;;;2.20;;
14342;SDS011;7255;53.596;9.960;2023-07-31T03:14:38;11.50;;;2.97;;
14342;SDS011;7255;53.596;9.960;2023-07-31T03:17:04;2.55;;;1.98;;
14342;SDS011;7255;53.596;9.960;2023-07-31T03:19:31;2.90;;;1.90;;
14342;SDS011;7255;53.596;9.960;2023-07-31T03:21:57;4.25;;;1.95;;
14342;SDS011;7255;53.596;9.960;2023-07-31T03:24:24;5.57;;;2.60;;
14342;SDS011;7255;53.596;9.960;2023-07-31T03:26:51;5.90;;;2.40;;
14342;SDS011;7255;53.596;9.960;2023-07-31T03:29:17;3.75;;;2.45;;
14342;SDS011;7255;53.596;9.960;2023-07-31T03:31:44;4.53;;;2.25;;
14342;SDS011;7255;53.596;9.960;2023-07-31T03:34:10;3.55;;;2.35;;
14342;SDS011;7255;53.596;9.960;2023-07-31T03:36:36;2.87;;;2.42;;
14342;SDS011;7255;53.596;9.960;2023-07-31T03:39:03;4.40;;;2.40;;
14342;SDS011;7255;53.596;9.960;2023-07-31T03:41:29;4.75;;;2.22;;
14342;SDS011;7255;53.596;9.960;2023-07-31T03:43:57;4.32;;;2.40;;
14342;SDS011;7255;53.596;9.960;2023-07-31T03:46:23;4.93;;;2.78;;
14342;SDS011;7255;53.596;9.960;2023-07-31T03:48:50;4.50;;;2.28;;
14342;SDS011;7255;53.596;9.960;2023-07-31T03:51:17;5.12;;;2.42;;
14342;SDS011;7255;53.596;9.960;2023-07-31T03:53:43;4.18;;;2.65;;
14342;SDS011;7255;53.596;9.960;2023-07-31T03:56:10;4.15;;;2.40;;
14342;SDS011;7255;53.596;9.960;2023-07-31T03:58:37;3.10;;;2.37;;
14342;SDS011;7255;53.596;9.960;2023-07-31T04:01:04;2.47;;;2.15;;
14342;SDS011;7255;53.596;9.960;2023-07-31T04:03:30;2.45;;;2.25;;
14342;SDS011;7255;53.596;9.960;2023-07-31T04:05:57;7.32;;;2.35;;
14342;SDS011;7255;53.596;9.960;2023-07-31T04:08:23;2.72;;;2.28;;
14342;SDS011;7255;53.596;9.960;2023-07-31T04:10:50;5.97;;;2.28;;
14342;SDS011;7255;53.596;9.960;2023-07-31T04:13:16;6.97;;;2.33;;
14342;SDS011;7255;53.596;9.960;2023-07-31T04:15:43;4.00;;;2.37;;
14342;SDS011;7255;53.596;9.960;2023-07-31T04:18:15;2.80;;;1.92;;
14342;SDS011;7255;53.596;9.960;2023-07-31T04:20:41;4.70;;;2.45;;
14342;SDS011;7255;53.596;9.960;2023-07-31T04:23:08;3.78;;;2.08;;
14342;SDS011;7255;53.596;9.960;2023-07-31T04:25:34;2.50;;;1.92;;
14342;SDS011;7255;53.596;9.960;2023-07-31T04:28:00;3.87;;;1.80;;
14342;SDS011;7255;53.596;9.960;2023-07-31T04:30:27;2.70;;;2.37;;
14342;SDS011;7255;53.596;9.960;2023-07-31T04:32:53;2.72;;;2.45;;
14342;SDS011;7255;53.596;9.960;2023-07-31T04:35:21;6.35;;;2.40;;
14342;SDS011;7255;53.596;9.960;2023-07-31T04:37:47;4.60;;;2.50;;
14342;SDS011;7255;53.596;9.960;2023-07-31T04:40:14;3.50;;;2.15;;
14342;SDS011;7255;53.596;9.960;2023-07-31T04:42:40;2.12;;;1.98;;
14342;SDS011;7255;53.596;9.960;2023-07-31T04:45:08;2.45;;;1.90;;
14342;SDS011;7255;53.596;9.960;2023-07-31T04:47:35;2.33;;;2.08;;
14342;SDS011;7255;53.596;9.960;2023-07-31T04:50:01;2.35;;;2.08;;
14342;SDS011;7255;53.596;9.960;2023-07-31T04:52:29;1.95;;;1.75;;
14342;SDS011;7255;53.596;9.960;2023-07-31T04:54:55;2.15;;;1.95;;
14342;SDS011;7255;53.596;9.960;2023-07-31T04:57:21;2.15;;;1.70;;
14342;SDS011;7255;53.596;9.960;2023-07-31T04:59:48;3.55;;;1.90;;
14342;SDS011;7255;53.596;9.960;2023-07-31T05:02:14;3.12;;;2.05;;
14342;SDS011;7255;53.596;9.960;2023-07-31T05:04:41;3.22;;;1.73;;
14342;SDS011;7255;53.596;9.960;2023-07-31T05:07:07;2.47;;;1.90;;
14342;SDS011;7255;53.596;9.960;2023-07-31T05:09:35;2.58;;;1.83;;
14342;SDS011;7255;53.596;9.960;2023-07-31T05:12:01;1.98;;;1.60;;
14342;SDS011;7255;53.596;9.960;2023-07-31T05:14:28;2.00;;;1.83;;
14342;SDS011;7255;53.596;9.960;2023-07-31T05:16:54;2.55;;;1.83;;
14342;SDS011;7255;53.596;9.960;2023-07-31T05:19:20;1.90;;;1.77;;
14342;SDS011;7255;53.596;9.960;2023-07-31T05:21:46;2.42;;;1.90;;
14342;SDS011;7255;53.596;9.960;2023-07-31T05:24:13;2.20;;;1.87;;
14342;SDS011;7255;53.596;9.960;2023-07-31T05:26:40;4.50;;;2.20;;
14342;SDS011;7255;53.596;9.960;2023-07-31T05:29:07;2.20;;;1.65;;
14342;SDS011;7255;53.596;9.960;2023-07-31T05:31:33;2.17;;;1.98;;
14342;SDS011;7255;53.596;9.960;2023-07-31T05:33:59;2.55;;;1.67;;
14342;SDS011;7255;53.596;9.960;2023-07-31T05:36:25;2.37;;;1.73;;
14342;SDS011;7255;53.596;9.960;2023-07-31T05:38:52;2.47;;;2.12;;
14342;SDS011;7255;53.596;9.960;2023-07-31T05:41:18;3.15;;;2.28;;
14342;SDS011;7255;53.596;9.960;2023-07-31T05:43:46;1.77;;;1.67;;
14342;SDS011;7255;53.596;9.960;2023-07-31T05:46:12;1.77;;;1.67;;
14342;SDS011;7255;53.596;9.960;2023-07-31T05:48:38;3.40;;;1.90;;
14342;SDS011;7255;53.596;9.960;2023-07-31T05:51:04;2.53;;;1.62;;
14342;SDS011;7255;53.596;9.960;2023-07-31T05:53:32;2.35;;;1.83;;
14342;SDS011;7255;53.596;9.960;2023-07-31T05:55:58;2.78;;;2.37;;
14342;SDS011;7255;53.596;9.960;2023-07-31T05:58:24;2.20;;;2.00;;
14342;SDS011;7255;53.596;9.960;2023-07-31T06:00:52;2.08;;;1.90;;
14342;SDS011;7255;53.596;9.960;2023-07-31T06:03:18;2.72;;;2.10;;
14342;SDS011;7255;53.596;9.960;2023-07-31T06:05:45;2.05;;;1.87;;
14342;SDS011;7255;53.596;9.960;2023-07-31T06:08:11;2.30;;;2.10;;
14342;SDS011;7255;53.596;9.960;2023-07-31T06:10:37;2.42;;;1.90;;
14342;SDS011;7255;53.596;9.960;2023-07-31T06:13:04;2.20;;;2.00;;
14342;SDS011;7255;53.596;9.960;2023-07-31T06:15:30;2.15;;;1.85;;
14342;SDS011;7255;53.596;9.960;2023-07-31T06:17:58;1.98;;;1.77;;
14342;SDS011;7255;53.596;9.960;2023-07-31T06:20:26;2.42;;;2.17;;
14342;SDS011;7255;53.596;9.960;2023-07-31T06:22:53;2.70;;;2.22;;
14342;SDS011;7255;53.596;9.960;2023-07-31T06:25:19;2.05;;;1.87;;
14342;SDS011;7255;53.596;9.960;2023-07-31T06:27:46;2.53;;;2.33;;
14342;SDS011;7255;53.596;9.960;2023-07-31T06:30:12;2.30;;;2.10;;
14342;SDS011;7255;53.596;9.960;2023-07-31T06:32:38;2.20;;;2.00;;
14342;SDS011;7255;53.596;9.960;2023-07-31T06:35:07;2.00;;;1.80;;
14342;SDS011;7255;53.596;9.960;2023-07-31T06:37:33;1.70;;;1.60;;
14342;SDS011;7255;53.596;9.960;2023-07-31T06:39:59;2.37;;;1.92;;
14342;SDS011;7255;53.596;9.960;2023-07-31T06:42:26;2.30;;;2.10;;
14342;SDS011;7255;53.596;9.960;2023-07-31T06:44:52;3.33;;;1.87;;
14342;SDS011;7255;53.596;9.960;2023-07-31T06:47:18;1.65;;;1.55;;
14342;SDS011;7255;53.596;9.960;2023-07-31T06:49:45;2.15;;;1.87;;
14342;SDS011;7255;53.596;9.960;2023-07-31T06:52:12;2.45;;;2.12;;
14342;SDS011;7255;53.596;9.960;2023-07-31T06:54:38;2.60;;;1.95;;
14342;SDS011;7255;53.596;9.960;2023-07-31T06:57:05;3.28;;;1.92;;
14342;SDS011;7255;53.596;9.960;2023-07-31T06:59:31;3.72;;;2.10;;
14342;SDS011;7255;53.596;9.960;2023-07-31T07:01:58;2.40;;;2.20;;
14342;SDS011;7255;53.596;9.960;2023-07-31T07:04:24;2.70;;;2.50;;
14342;SDS011;7255;53.596;9.960;2023-07-31T07:06:51;5.62;;;2.40;;
14342;SDS011;7255;53.596;9.960;2023-07-31T07:09:19;3.70;;;1.87;;
14342;SDS011;7255;53.596;9.960;2023-07-31T07:11:45;3.28;;;2.10;;
14342;SDS011;7255;53.596;9.960;2023-07-31T07:14:11;2.45;;;1.60;;
14342;SDS011;7255;53.596;9.960;2023-07-31T07:16:38;1.90;;;1.80;;
14342;SDS011;7255;53.596;9.960;2023-07-31T07:19:05;2.15;;;1.95;;
14342;SDS011;7255;53.596;9.960;2023-07-31T07:21:32;2.75;;;1.92;;
14342;SDS011;7255;53.596;9.960;2023-07-31T07:23:58;2.15;;;1.95;;
14342;SDS011;7255;53.596;9.960;2023-07-31T07:26:26;2.15;;;1.95;;
14342;SDS011;7255;53.596;9.960;2023-07-31T07:28:52;1.92;;;1.80;;
14342;SDS011;7255;53.596;9.960;2023-07-31T07:31:18;2.33;;;1.77;;
14342;SDS011;7255;53.596;9.960;2023-07-31T07:33:45;1.50;;;1.40;;
14342;SDS011;7255;53.596;9.960;2023-07-31T07:36:11;1.85;;;1.73;;
14342;SDS011;7255;53.596;9.960;2023-07-31T07:38:38;2.65;;;1.45;;
14342;SDS011;7255;53.596;9.960;2023-07-31T07:41:05;1.58;;;1.40;;
14342;SDS011;7255;53.596;9.960;2023-07-31T07:43:32;1.87;;;1.60;;
14342;SDS011;7255;53.596;9.960;2023-07-31T07:45:58;1.50;;;1.40;;
14342;SDS011;7255;53.596;9.960;2023-07-31T07:48:25;2.35;;;1.60;;
14342;SDS011;7255;53.596;9.960;2023-07-31T07:50:51;2.00;;;1.80;;
14342;SDS011;7255;53.596;9.960;2023-07-31T07:53:17;1.52;;;1.42;;
14342;SDS011;7255;53.596;9.960;2023-07-31T07:55:44;2.00;;;1.80;;
14342;SDS011;7255;53.596;9.960;2023-07-31T07:58:10;2.10;;;1.80;;
14342;SDS011;7255;53.596;9.960;2023-07-31T08:00:38;2.17;;;1.98;;
14342;SDS011;7255;53.596;9.960;2023-07-31T08:03:04;2.65;;;2.20;;
14342;SDS011;7255;53.596;9.960;2023-07-31T08:05:30;1.92;;;1.77;;
14342;SDS011;7255;53.596;9.960;2023-07-31T08:07:59;3.72;;;1.80;;
14342;SDS011;7255;53.596;9.960;2023-07-31T08:10:25;2.70;;;1.52;;
14342;SDS011;7255;53.596;9.960;2023-07-31T08:12:51;1.92;;;1.75;;
14342;SDS011;7255;53.596;9.960;2023-07-31T08:15:18;2.65;;;2.37;;
14342;SDS011;7255;53.596;9.960;2023-07-31T08:17:45;2.20;;;2.00;;
14342;SDS011;7255;53.596;9.960;2023-07-31T08:20:11;2.45;;;2.25;;
14342;SDS011;7255;53.596;9.960;2023-07-31T08:22:39;2.67;;;2.20;;
14342;SDS011;7255;53.596;9.960;2023-07-31T08:25:05;2.22;;;1.92;;
14342;SDS011;7255;53.596;9.960;2023-07-31T08:27:32;1.90;;;1.80;;
14342;SDS011;7255;53.596;9.960;2023-07-31T08:29:58;1.60;;;1.50;;
14342;SDS011;7255;53.596;9.960;2023-07-31T08:32:25;1.75;;;1.65;;
14342;SDS011;7255;53.596;9.960;2023-07-31T08:34:52;3.67;;;1.62;;
14342;SDS011;7255;53.596;9.960;2023-07-31T08:37:19;1.65;;;1.55;;
14342;SDS011;7255;53.596;9.960;2023-07-31T08:39:45;1.40;;;1.30;;
14342;SDS011;7255;53.596;9.960;2023-07-31T08:42:11;1.70;;;1.45;;
14342;SDS011;7255;53.596;9.960;2023-07-31T08:44:38;1.73;;;1.50;;
14342;SDS011;7255;53.596;9.960;2023-07-31T08:47:04;1.40;;;1.30;;
14342;SDS011;7255;53.596;9.960;2023-07-31T08:49:31;1.60;;;1.50;;
14342;SDS011;7255;53.596;9.960;2023-07-31T08:52:00;1.25;;;1.15;;
14342;SDS011;7255;53.596;9.960;2023-07-31T08:54:27;1.75;;;1.48;;
14342;SDS011;7255;53.596;9.960;2023-07-31T08:56:56;2.03;;;1.08;;
14342;SDS011;7255;53.596;9.960;2023-07-31T08:59:24;1.58;;;1.48;;
14342;SDS011;7255;53.596;9.960;2023-07-31T09:01:53;1.37;;;1.20;;
14342;SDS011;7255;53.596;9.960;2023-07-31T09:04:21;4.35;;;1.20;;
14342;SDS011;7255;53.596;9.960;2023-07-31T09:06:49;1.20;;;1.10;;
14342;SDS011;7255;53.596;9.960;2023-07-31T09:09:23;1.25;;;0.90;;
14342;SDS011;7255;53.596;9.960;2023-07-31T09:11:49;1.30;;;1.20;;
14342;SDS011;7255;53.596;9.960;2023-07-31T09:14:16;1.52;;;1.08;;
14342;SDS011;7255;53.596;9.960;2023-07-31T09:16:51;1.12;;;1.00;;
14342;SDS011;7255;53.596;9.960;2023-07-31T09:19:24;1.58;;;0.80;;
14342;SDS011;7255;53.596;9.960;2023-07-31T09:21:52;1.20;;;1.10;;
14342;SDS011;7255;53.596;9.960;2023-07-31T09:24:26;1.20;;;1.10;;
14342;SDS011;7255;53.596;9.960;2023-07-31T09:26:53;1.00;;;0.88;;
14342;SDS011;7255;53.596;9.960;2023-07-31T09:29:20;1.17;;;1.00;;
14342;SDS011;7255;53.596;9.960;2023-07-31T09:31:47;1.90;;;1.20;;
14342;SDS011;7255;53.596;9.960;2023-07-31T09:34:13;1.30;;;1.20;;
14342;SDS011;7255;53.596;9.960;2023-07-31T09:36:40;2.58;;;1.95;;
14342;SDS011;7255;53.596;9.960;2023-07-31T09:39:08;1.10;;;1.00;;
14342;SDS011;7255;53.596;9.960;2023-07-31T09:41:37;1.30;;;1.10;;
14342;SDS011;7255;53.596;9.960;2023-07-31T09:44:08;1.52;;;1.08;;
14342;SDS011;7255;53.596;9.960;2023-07-31T09:46:35;1.67;;;1.35;;
14342;SDS011;7255;53.596;9.960;2023-07-31T09:49:03;1.73;;;1.27;;
14342;SDS011;7255;53.596;9.960;2023-07-31T09:51:35;2.45;;;1.17;;
14342;SDS011;7255;53.596;9.960;2023-07-31T09:54:03;1.23;;;1.10;;
14342;SDS011;7255;53.596;9.960;2023-07-31T09:56:38;0.77;;;0.77;;
14342;SDS011;7255;53.596;9.960;2023-07-31T09:59:08;1.10;;;1.00;;
14342;SDS011;7255;53.596;9.960;2023-07-31T10:01:37;0.98;;;0.90;;
14342;SDS011;7255;53.596;9.960;2023-07-31T10:04:04;0.80;;;0.80;;
14342;SDS011;7255;53.596;9.960;2023-07-31T10:06:32;1.00;;;0.98;;
14342;SDS011;7255;53.596;9.960;2023-07-31T10:09:00;0.77;;;0.77;;
14342;SDS011;7255;53.596;9.960;2023-07-31T10:11:28;1.00;;;0.82;;
14342;SDS011;7255;53.596;9.960;2023-07-31T10:13:57;1.73;;;1.00;;
14342;SDS011;7255;53.596;9.960;2023-07-31T10:16:24;1.27;;;1.17;;
14342;SDS011;7255;53.596;9.960;2023-07-31T10:18:50;1.67;;;0.90;;
14342;SDS011;7255;53.596;9.960;2023-07-31T10:21:17;0.95;;;0.85;;
14342;SDS011;7255;53.596;9.960;2023-07-31T10:23:44;1.10;;;1.00;;
14342;SDS011;7255;53.596;9.960;2023-07-31T10:26:11;1.67;;;1.10;;
14342;SDS011;7255;53.596;9.960;2023-07-31T10:28:40;0.70;;;0.70;;
14342;SDS011;7255;53.596;9.960;2023-07-31T10:31:08;0.75;;;0.68;;
14342;SDS011;7255;53.596;9.960;2023-07-31T10:33:35;0.60;;;0.60;;
14342;SDS011;7255;53.596;9.960;2023-07-31T10:36:16;3.03;;;1.10;;
14342;SDS011;7255;53.596;9.960;2023-07-31T10:38:44;2.60;;;0.70;;
14342;SDS011;7255;53.596;9.960;2023-07-31T10:41:10;0.85;;;0.80;;
14342;SDS011;7255;53.596;9.960;2023-07-31T10:43:37;0.60;;;0.60;;
14342;SDS011;7255;53.596;9.960;2023-07-31T10:46:06;1.52;;;0.80;;
14342;SDS011;7255;53.596;9.960;2023-07-31T10:48:35;0.60;;;0.60;;
14342;SDS011;7255;53.596;9.960;2023-07-31T10:51:06;0.60;;;0.60;;
14342;SDS011;7255;53.596;9.960;2023-07-31T10:53:34;0.80;;;0.80;;
14342;SDS011;7255;53.596;9.960;2023-07-31T10:56:01;0.98;;;0.88;;
14342;SDS011;7255;53.596;9.960;2023-07-31T10:58:28;1.02;;;0.90;;
14342;SDS011;7255;53.596;9.960;2023-07-31T11:00:57;1.27;;;0.82;;
14342;SDS011;7255;53.596;9.960;2023-07-31T11:03:25;0.80;;;0.80;;
14342;SDS011;7255;53.596;9.960;2023-07-31T11:05:59;1.08;;;0.98;;
14342;SDS011;7255;53.596;9.960;2023-07-31T11:08:28;0.98;;;0.98;;
14342;SDS011;7255;53.596;9.960;2023-07-31T11:11:04;1.37;;;1.27;;
14342;SDS011;7255;53.596;9.960;2023-07-31T11:13:32;1.77;;;1.27;;
14342;SDS011;7255;53.596;9.960;2023-07-31T11:15:59;2.08;;;1.30;;
14342;SDS011;7255;53.596;9.960;2023-07-31T11:18:26;2.37;;;1.20;;
14342;SDS011;7255;53.596;9.960;2023-07-31T11:20:54;0.90;;;0.90;;
14342;SDS011;7255;53.596;9.960;2023-07-31T11:23:21;0.95;;;0.80;;
14342;SDS011;7255;53.596;9.960;2023-07-31T11:25:48;0.70;;;0.70;;
14342;SDS011;7255;53.596;9.960;2023-07-31T11:28:16;0.80;;;0.80;;
14342;SDS011;7255;53.596;9.960;2023-07-31T11:30:44;0.93;;;0.80;;
14342;SDS011;7255;53.596;9.960;2023-07-31T11:33:11;0.80;;;0.80;;
14342;SDS011;7255;53.596;9.960;2023-07-31T11:35:41;0.80;;;0.80;;
14342;SDS011;7255;53.596;9.960;2023-07-31T11:38:11;0.90;;;0.80;;
14342;SDS011;7255;53.596;9.960;2023-07-31T11:40:40;0.75;;;0.75;;
14342;SDS011;7255;53.596;9.960;2023-07-31T11:43:07;0.85;;;0.80;;
14342;SDS011;7255;53.596;9.960;2023-07-31T11:45:34;1.20;;;0.90;;
14342;SDS011;7255;53.596;9.960;2023-07-31T11:48:01;1.12;;;0.75;;
14342;SDS011;7255;53.596;9.960;2023-07-31T11:50:27;1.62;;;0.82;;
14342;SDS011;7255;53.596;9.960;2023-07-31T11:52:55;1.00;;;0.75;;
14342;SDS011;7255;53.596;9.960;2023-07-31T11:55:26;0.90;;;0.85;;
14342;SDS011;7255;53.596;9.960;2023-07-31T11:57:54;0.70;;;0.70;;
14342;SDS011;7255;53.596;9.960;2023-07-31T12:00:23;0.50;;;0.50;;
14342;SDS011;7255;53.596;9.960;2023-07-31T12:02:50;1.75;;;0.80;;
14342;SDS011;7255;53.596;9.960;2023-07-31T12:05:17;1.00;;;0.60;;
14342;SDS011;7255;53.596;9.960;2023-07-31T12:07:47;0.88;;;0.70;;
14342;SDS011;7255;53.596;9.960;2023-07-31T12:10:23;0.77;;;0.77;;
14342;SDS011;7255;53.596;9.960;2023-07-31T12:13:01;0.73;;;0.70;;
14342;SDS011;7255;53.596;9.960;2023-07-31T12:15:31;0.88;;;0.80;;
14342;SDS011;7255;53.596;9.960;2023-07-31T12:17:59;3.62;;;1.55;;
14342;SDS011;7255;53.596;9.960;2023-07-31T12:20:25;2.85;;;0.98;;
14342;SDS011;7255;53.596;9.960;2023-07-31T12:22:52;1.02;;;0.77;;
14342;SDS011;7255;53.596;9.960;2023-07-31T12:25:18;1.35;;;0.70;;
14342;SDS011;7255;53.596;9.960;2023-07-31T12:27:45;1.17;;;0.82;;
14342;SDS011;7255;53.596;9.960;2023-07-31T12:33:07;0.85;;;0.75;;
14342;SDS011;7255;53.596;9.960;2023-07-31T12:35:36;0.75;;;0.70;;
14342;SDS011;7255;53.596;9.960;2023-07-31T12:38:03;0.95;;;0.70;;
14342;SDS011;7255;53.596;9.960;2023-07-31T12:40:29;1.23;;;0.90;;
14342;SDS011;7255;53.596;9.960;2023-07-31T12:42:56;0.60;;;0.60;;
14342;SDS011;7255;53.596;9.960;2023-07-31T12:45:22;1.10;;;0.60;;
14342;SDS011;7255;53.596;9.960;2023-07-31T12:47:49;2.33;;;1.20;;
14342;SDS011;7255;53.596;9.960;2023-07-31T12:50:17;0.98;;;0.85;;
14342;SDS011;7255;53.596;9.960;2023-07-31T12:52:43;1.10;;;1.00;;
14342;SDS011;7255;53.596;9.960;2023-07-31T12:55:09;0.75;;;0.75;;
14342;SDS011;7255;53.596;9.960;2023-07-31T12:57:36;1.40;;;1.15;;
14342;SDS011;7255;53.596;9.960;2023-07-31T13:00:03;1.55;;;1.23;;
14342;SDS011;7255;53.596;9.960;2023-07-31T13:02:29;2.55;;;1.05;;
14342;SDS011;7255;53.596;9.960;2023-07-31T13:04:56;1.50;;;1.37;;
14342;SDS011;7255;53.596;9.960;2023-07-31T13:07:23;1.25;;;0.95;;
14342;SDS011;7255;53.596;9.960;2023-07-31T13:09:50;0.98;;;0.93;;
14342;SDS011;7255;53.596;9.960;2023-07-31T13:12:16;2.35;;;1.12;;
14342;SDS011;7255;53.596;9.960;2023-07-31T13:14:43;2.17;;;1.02;;
14342;SDS011;7255;53.596;9.960;2023-07-31T13:17:09;0.70;;;0.70;;
14342;SDS011;7255;53.596;9.960;2023-07-31T13:19:35;2.47;;;1.00;;
14342;SDS011;7255;53.596;9.960;2023-07-31T13:22:02;1.85;;;0.60;;
14342;SDS011;7255;53.596;9.960;2023-07-31T13:24:30;1.58;;;0.80;;
14342;SDS011;7255;53.596;9.960;2023-07-31T13:26:56;0.70;;;0.70;;
14342;SDS011;7255;53.596;9.960;2023-07-31T13:29:23;0.70;;;0.70;;
14342;SDS011;7255;53.596;9.960;2023-07-31T13:31:50;2.25;;;1.12;;
14342;SDS011;7255;53.596;9.960;2023-07-31T13:34:16;1.10;;;0.90;;
14342;SDS011;7255;53.596;9.960;2023-07-31T13:36:43;0.70;;;0.70;;
14342;SDS011;7255;53.596;9.960;2023-07-31T13:39:09;0.82;;;0.82;;
14342;SDS011;7255;53.596;9.960;2023-07-31T13:41:37;0.90;;;0.90;;
14342;SDS011;7255;53.596;9.960;2023-07-31T13:44:03;1.33;;;1.20;;
14342;SDS011;7255;53.596;9.960;2023-07-31T13:46:30;0.80;;;0.80;;
14342;SDS011;7255;53.596;9.960;2023-07-31T13:48:57;1.15;;;0.95;;
14342;SDS011;7255;53.596;9.960;2023-07-31T13:51:24;1.17;;;1.08;;
14342;SDS011;7255;53.596;9.960;2023-07-31T13:53:52;1.27;;;1.15;;
14342;SDS011;7255;53.596;9.960;2023-07-31T13:56:18;3.37;;;1.37;;
14342;SDS011;7255;53.596;9.960;2023-07-31T13:58:46;1.35;;;1.25;;
14342;SDS011;7255;53.596;9.960;2023-07-31T14:01:12;1.15;;;1.00;;
14342;SDS011;7255;53.596;9.960;2023-07-31T14:03:38;1.00;;;1.00;;
14342;SDS011;7255;53.596;9.960;2023-07-31T14:06:05;2.10;;;1.00;;
14342;SDS011;7255;53.596;9.960;2023-07-31T14:08:31;2.15;;;1.10;;
14342;SDS011;7255;53.596;9.960;2023-07-31T14:10:57;1.45;;;1.25;;
14342;SDS011;7255;53.596;9.960;2023-07-31T14:13:24;1.15;;;1.05;;
14342;SDS011;7255;53.596;9.960;2023-07-31T14:15:51;0.88;;;0.88;;
14342;SDS011;7255;53.596;9.960;2023-07-31T14:18:18;1.00;;;0.90;;
14342;SDS011;7255;53.596;9.960;2023-07-31T14:20:44;0.90;;;0.80;;
14342;SDS011;7255;53.596;9.960;2023-07-31T14:23:11;1.20;;;1.00;;
14342;SDS011;7255;53.596;9.960;2023-07-31T14:25:37;0.90;;;0.80;;
14342;SDS011;7255;53.596;9.960;2023-07-31T14:28:04;1.00;;;0.98;;
14342;SDS011;7255;53.596;9.960;2023-07-31T14:30:30;1.05;;;0.98;;
14342;SDS011;7255;53.596;9.960;2023-07-31T14:32:57;1.02;;;1.00;;
14342;SDS011;7255;53.596;9.960;2023-07-31T14:35:25;4.15;;;1.10;;
14342;SDS011;7255;53.596;9.960;2023-07-31T14:37:51;1.65;;;1.30;;
14342;SDS011;7255;53.596;9.960;2023-07-31T14:40:18;1.45;;;1.12;;
14342;SDS011;7255;53.596;9.960;2023-07-31T14:42:44;7.60;;;3.90;;
14342;SDS011;7255;53.596;9.960;2023-07-31T14:45:11;2.95;;;2.15;;
14342;SDS011;7255;53.596;9.960;2023-07-31T14:47:37;1.92;;;1.52;;
14342;SDS011;7255;53.596;9.960;2023-07-31T14:50:05;1.42;;;1.10;;
14342;SDS011;7255;53.596;9.960;2023-07-31T14:52:32;1.27;;;1.17;;
14342;SDS011;7255;53.596;9.960;2023-07-31T14:54:59;4.07;;;1.80;;
14342;SDS011;7255;53.596;9.960;2023-07-31T14:57:25;2.08;;;1.50;;
14342;SDS011;7255;53.596;9.960;2023-07-31T14:59:51;12.60;;;6.85;;
14342;SDS011;7255;53.596;9.960;2023-07-31T15:02:18;0.93;;;0.85;;